Terminal Aerodrome Forecast
Issued by NWS Greer, SC

Home | Current Version | Previous Version | Text Only | Print | Product List | Glossary On
Versions: 1 2 3 4 5 6 7 8 9 10 11 12 13 14 15
793
FTUS42 KGSP 080539
TAFGSP
TAF
KGSP 080539Z 0806/0906 00000KT P6SM FEW250
     FM081300 22008KT P6SM SCT080 BKN120
     FM081800 24011G20KT P6SM BKN070 PROB30 0818/0823 4SM -SHRA
      OVC040
     FM090000 26008KT P6SM SCT100=

USA.gov is the U.S. government's official web portal to all federal, state and local government web resources and services.